• Join FlightAware (Why Join?)
  • Login
  • US Flag GB Flag 
04:13 EDT


 

Airport Tracker/Info


-or-


 

Live Flight TrackerFlight Track Log ✈ EJA930 ✈ 04-Jul-2013 ✈ KCMH - KORD

Flight Track Log - Related Links

Times and Time Zones

All times are in EDT time to prevent confusion due to time zone crossing. See the EJA930 flight status page for this flight to view local times or setup timezone preferences in your user account.

Time Position Orientation Groundspeed Altitude Reporting Facility
EDT Latitude Longitude Course Direction KTS MPH feet Rate Location/Type
15:14 40.0039 -82.9131 274° West 158 182 1,500  Level Indianapolis Center
15:15 40.0069 -82.9675 274° West 222 255 4,200 3,480 Climbing Indianapolis Center
15:16 40.0125 -83.0608 274° West 255 293 7,500 2,820 Climbing Indianapolis Center
15:17 40.0183 -83.1639 274° West 280 322 10,000 2,040 Climbing Indianapolis Center
15:18 40.0233 -83.2906 273° West 348 400 11,800 1,860 Climbing Indianapolis Center
15:19 40.0628 -83.4122 293° West 369 425 13,900 1,800 Climbing Indianapolis Center
15:20 40.1075 -83.5369 295° West 379 436 15,600 1,620 Climbing Indianapolis Center
15:21 40.1547 -83.6672 295° West 393 452 17,300 1,500 Climbing Indianapolis Center
15:22 40.2022 -83.7994 295° West 399 459 18,700 1,320 Climbing Indianapolis Center
15:23 40.2597 -83.9606 295° West 416 479 20,100 1,020 Climbing Indianapolis Center
15:24 40.3194 -84.0953 300° West 422 486 20,800 780 Climbing Indianapolis Center
15:25 40.3967 -84.2181 310° West 433 498 21,700 540 Climbing Indianapolis Center
15:26 40.4739 -84.3436 309° West 436 502 22,000 120 Climbing Indianapolis Center
15:27 40.5544 -84.4764 309° West 455 524 22,000  Level Indianapolis Center
15:28 40.6364 -84.6119 309° West 468 539 22,000  Level Indianapolis Center
15:29 40.7081 -84.7592 303° West 474 545 22,000  Level Indianapolis Center
15:30 40.7675 -84.8908 301° West 479 551 22,000  Level Chicago Center
15:31 40.8378 -85.0417 302° West 482 555 22,000  Level Chicago Center
15:32 40.9067 -85.1942 301° West 482 555 22,000  Level Chicago Center
15:33 40.9767 -85.3475 301° West 484 557 22,000  Level Chicago Center
15:34 41.0458 -85.5019 301° West 484 557 22,000  Level Chicago Center
15:35 41.1158 -85.6558 301° West 485 558 22,000  Level Chicago Center
15:36 41.1833 -85.8097 300° West 483 556 22,000 -420 Level Chicago Center
15:37 41.2633 -85.9911 300° West 475 547 21,200 -900 Descending Chicago Center
15:38 41.3086 -86.1328 293° West 411 473 20,200 -1,020 Descending Chicago Center
15:39 41.3406 -86.2647 288° West 387 445 19,200 -1,020 Descending Chicago Center
15:40 41.3744 -86.4017 288° West 387 445 18,200 -960 Descending Chicago Center
15:41 41.4100 -86.5478 288° West 406 467 17,300 -1,080 Descending Chicago Center
15:42 41.4492 -86.6989 289° West 426 490 16,100 -1,080 Descending Chicago Center
15:43 41.4842 -86.8428 288° West 421 484 15,100 -1,140 Descending Chicago Center
15:44 41.5261 -87.0158 288° West 414 476 13,800 -1,200 Descending Chicago Center
15:45 41.5606 -87.1542 288° West 399 459 12,700 -900 Descending Chicago Center
15:46 41.5950 -87.2728 291° West 351 404 12,000 -360 Descending Chicago Center
15:47 41.6589 -87.3717 311° West 353 406 12,000 -540 Level Chicago Center
15:48 41.7100 -87.4578 309° West 305 351 10,900 -1,200 Descending Chicago Center
15:49 41.7631 -87.5419 310° West 300 345 9,600 -1,320 Descending Chicago Center
15:50 41.8208 -87.6389 309° West 281 323 8,200 -1,200 Descending Chicago Center
15:51 41.8714 -87.6906 323° Northwest 257 296 7,200 -600 Descending Chicago Center
15:52 41.9367 -87.6922 359° North 239 275 7,000 -120 Descending Chicago Center
15:53 42.0036 -87.6925 360° North 243 280 7,000 -540 Level Chicago Center
15:55 42.0569 -87.6911 North 202 232 6,000 -1,080 Descending Chicago Center
15:56 42.1114 -87.6936 358° North 198 228 4,800 -1,140 Descending Chicago Center
15:57 42.1231 -87.7589 284° West 179 206 3,700 -1,020 Descending Chicago Center
15:58 42.0850 -87.8011 219° Southwest 179 206 2,800 -840 Descending Chicago Center
15:59 42.0494 -87.8397 219° Southwest 172 198 2,000 -840 Descending Chicago Center
16:00 42.0192 -87.8736 220° Southwest 158 182 1,200 -780 Descending Chicago Center
16:02 41.9817 -87.9067 225° Southwest  Level Estimated